Good Hope, Mississippi
Current Conditions -  °F | °C
As of 4:39 PM on Monday 22 Dec 2014 (Local Time) from KHBG Reporting Station
Broken Clouds Broken Clouds  
Wind Chill: 67°   Ceiling: 2600
Heat Index: 67°   Visibility: 9mi
Dew Point: 65°   Wind: 7mph
Humidity: 93%   Direction: 140°SE
Pressure: 29.7"   Gusts: NA
Location:  31.3326°N, 88.8854°W
Report Text: KHBG 222239Z AUTO 14006KT 9SM SCT010 BKN026 BKN032 19/18 A2970 RMK AO2 T01940183
Loading
Personal Weather Stations






























Interactive Weather Map New forecast layout! Learn more

10-Day Weather Forecast

Advertisements
Track Severe Weather on mobile